Time;durP1;ratioP1;P1;durP2;ratioP2;P2;SDS_P1;SDS_P2;PMS_P1;PMS_P2;Temp;Humidity;BMP_temperature;BMP_pressure;BME280_temperature;BME280_humidity;BME280_pressure;Samples;Min_cycle;Max_cycle;Signal;HPM_P1;HPM_P2
2023/10/18 06:24:08;;;;;;;;;;;9.70;64.90;;;8.63;59.51;96602.28;6137172;23;19920;-85
2023/10/18 06:26:45;;;;;;;;;;;9.70;65.10;;;8.64;60.20;96588.41;6111624;23;19928;-84
2023/10/18 06:29:31;;;;;;;;;;;9.70;65.70;;;8.66;59.87;96590.88;6108120;23;19928;-84
2023/10/18 06:31:59;;;;;;;;;;;9.70;65.90;;;8.69;60.11;96590.41;6105719;23;20345;-85
2023/10/18 06:34:32;;;;;;;;;;;9.70;65.70;;;8.72;59.55;96584.41;6082947;23;20260;-85
2023/10/18 06:37:01;;;;;;;;;;;9.70;65.40;;;8.74;59.64;96585.84;6106111;23;19928;-85
2023/10/18 06:39:34;;;;;;;;;;;9.70;65.30;;;8.75;59.30;96584.78;6106553;23;20345;-85
2023/10/18 06:42:06;;;;;;;;;;;9.70;65.20;;;8.75;59.50;96579.31;6116651;23;19925;-85
2023/10/18 06:44:34;;;;;;;;;;;9.70;65.10;;;8.74;58.88;96582.28;6082751;23;20341;-85
2023/10/18 06:47:06;;;;;;;;;;;9.70;64.40;;;8.76;58.91;96591.03;6082714;23;20392;-85
2023/10/18 06:49:34;;;;;;;;;;;9.70;64.60;;;8.75;59.98;96590.22;6082694;23;19921;-85
2023/10/18 06:52:04;;;;;;;;;;;9.70;65.80;;;8.78;58.48;96599.81;6058642;23;19925;-85
2023/10/18 06:54:41;;;;;;;;;;;9.70;65.00;;;8.79;59.25;96600.63;6106501;23;19921;-85
2023/10/18 06:57:27;;;;;;;;;;;9.70;65.10;;;8.80;58.63;96602.28;6082369;23;19921;-85
2023/10/18 07:00:10;;;;;;;;;;;9.70;65.40;;;8.80;58.69;96607.75;6083095;23;19921;-85
2023/10/18 07:02:46;;;;;;;;;;;9.70;64.80;;;8.83;59.40;96607.25;6081550;23;20352;-86
2023/10/18 07:05:17;;;;;;;;;;;9.70;65.30;;;8.86;58.55;96601.31;6058883;23;20244;-85
2023/10/18 07:07:46;;;;;;;;;;;9.70;64.80;;;8.90;58.76;96605.19;6082017;23;19929;-86
2023/10/18 07:10:52;;;;;;;;;;;9.70;65.00;;;8.89;58.05;96592.63;6060076;23;19928;-85
2023/10/18 12:20:09;;;;;;;;;;;;;;;;;;;;;
2023/10/18 12:28:00;;;;;;;;;;;;;;;;;;;;;
2023/10/18 12:31:12;;;;;;;;;;;10.40;64.10;;;9.39;58.78;96341.38;6073566;23;19928;-88
2023/10/18 12:34:43;;;;;;;;;;;;;;;;;;;;;
2023/10/18 12:38:07;;;;;;;;;;;10.40;64.30;;;9.36;58.71;96331.78;6112741;23;19921;-88
2023/10/18 12:41:19;;;;;;;;;;;10.40;64.00;;;9.38;58.76;96335.06;6088637;23;19936;-88
2023/10/18 12:44:33;;;;;;;;;;;10.40;64.30;;;9.35;58.49;96327.41;6096314;23;19932;-88
2023/10/18 12:47:20;;;;;;;;;;;10.40;64.00;;;9.36;58.64;96315.38;6088640;23;19921;-88
2023/10/18 12:53:58;;;;;;;;;;;10.40;64.10;;;9.36;58.58;96313.50;6136168;23;19920;-88
2023/10/18 12:56:55;;;;;;;;;;;;;;;;;;;;;
2023/10/18 12:59:37;;;;;;;;;;;10.40;64.20;;;9.37;58.64;96317.03;6089147;23;19936;-88
2023/10/18 13:02:50;;;;;;;;;;;10.40;63.90;;;9.36;58.72;96315.38;6102075;23;20508;-88
2023/10/18 13:06:27;;;;;;;;;;;10.40;64.10;;;9.34;58.78;96312.09;6068724;23;19921;-88
2023/10/18 13:09:29;;;;;;;;;;;10.40;64.10;;;9.35;58.64;96306.38;5955412;23;19921;-88
2023/10/18 13:12:38;;;;;;;;;;;10.40;64.20;;;9.34;58.59;96298.44;6112728;23;19921;-88
2023/10/18 13:15:25;;;;;;;;;;;10.40;64.00;;;9.32;58.57;96292.41;6103468;23;19928;-88
2023/10/18 13:18:31;;;;;;;;;;;10.40;64.10;;;9.34;58.82;96299.25;6089154;23;19920;-88
2023/10/18 13:21:12;;;;;;;;;;;10.40;64.30;;;9.33;58.63;96294.88;6112758;23;19920;-88
2023/10/18 13:27:08;;;;;;;;;;;10.40;64.20;;;9.33;58.87;96291.34;6089615;23;19928;-89
2023/10/18 13:30:01;;;;;;;;;;;10.40;64.20;;;9.30;58.83;96289.13;6088777;23;19928;-88
2023/10/18 13:32:50;;;;;;;;;;;;;;;;;;;;;
2023/10/18 13:35:39;;;;;;;;;;;10.30;64.40;;;9.29;58.98;96282.00;6096010;23;19920;-88
2023/10/18 13:38:23;;;;;;;;;;;10.30;64.50;;;9.29;59.16;96280.13;6065681;23;19920;-88
2023/10/18 13:41:23;;;;;;;;;;;10.30;64.60;;;9.27;59.51;96282.28;6084214;23;19954;-88
2023/10/18 13:44:09;;;;;;;;;;;10.30;64.70;;;9.26;59.38;96283.34;6111837;23;19928;-88
2023/10/18 13:46:54;;;;;;;;;;;10.30;64.80;;;9.27;59.33;96279.53;6136544;23;19921;-88
2023/10/18 13:49:48;;;;;;;;;;;;;;;;;;;;;
2023/10/18 13:52:50;;;;;;;;;;;10.30;65.10;;;9.28;59.67;96275.72;6083232;23;19925;-88
2023/10/18 13:55:39;;;;;;;;;;;10.30;65.20;;;9.27;59.70;96273.25;6083302;23;19928;-88
2023/10/18 13:58:21;;;;;;;;;;;10.30;65.20;;;9.24;59.42;96274.59;6082776;23;19921;-88
2023/10/18 14:01:04;;;;;;;;;;;10.30;65.10;;;9.23;59.61;96262.00;6107081;23;19921;-88
2023/10/18 14:03:42;;;;;;;;;;;10.30;65.00;;;9.25;59.45;96269.94;6058648;23;19928;-88
2023/10/18 14:06:20;;;;;;;;;;;10.30;65.20;;;9.27;59.56;96263.16;6035668;23;19921;-88
2023/10/18 14:08:54;;;;;;;;;;;10.30;65.40;;;9.23;59.46;96262.00;6059315;23;19921;-88
2023/10/18 14:11:29;;;;;;;;;;;10.30;65.10;;;9.23;59.74;96263.94;6059182;23;19921;-88
2023/10/18 14:13:58;;;;;;;;;;;10.30;65.20;;;9.21;59.53;96259.56;6083493;23;20260;-88
2023/10/18 14:16:37;;;;;;;;;;;10.20;66.00;;;9.24;59.58;96269.13;6059885;23;19921;-88
2023/10/18 14:19:06;;;;;;;;;;;10.30;65.40;;;9.20;59.90;96257.91;6060500;23;19925;-88
2023/10/18 14:21:48;;;;;;;;;;;10.20;65.40;;;9.20;60.02;96257.91;6060404;23;19928;-88
2023/10/18 14:24:18;;;;;;;;;;;10.20;65.40;;;9.18;59.88;96257.34;6060433;23;20253;-87
2023/10/18 14:26:50;;;;;;;;;;;10.20;65.40;;;9.19;59.70;96259.00;6060306;23;20226;-88
2023/10/18 14:29:19;;;;;;;;;;;10.20;65.50;;;9.18;59.97;96254.59;6083780;23;19921;-88
2023/10/18 14:31:49;;;;;;;;;;;10.20;65.60;;;9.20;60.00;96257.91;6060155;23;20251;-88
2023/10/18 14:34:17;;;;;;;;;;;10.20;65.70;;;9.19;60.11;96263.59;6084302;23;20288;-88
2023/10/18 14:36:50;;;;;;;;;;;10.20;65.80;;;9.19;60.40;96267.19;6084246;23;20272;-88
2023/10/18 14:39:25;;;;;;;;;;;10.20;65.80;;;9.18;60.31;96273.72;6084079;23;19928;-88
2023/10/18 14:41:57;;;;;;;;;;;10.20;65.90;;;9.15;60.30;96257.84;6059961;23;19932;-88
2023/10/18 14:44:26;;;;;;;;;;;10.20;65.90;;;9.17;60.31;96268.50;6060100;23;20415;-88
2023/10/18 14:46:55;;;;;;;;;;;10.20;65.90;;;9.15;60.29;96260.59;6060170;23;19921;-88
2023/10/18 14:49:24;;;;;;;;;;;10.20;65.90;;;9.18;60.32;96268.25;6083295;23;19928;-88
2023/10/18 14:51:56;;;;;;;;;;;10.20;66.00;;;9.14;60.63;96258.94;6084322;23;20344;-88
2023/10/18 14:54:33;;;;;;;;;;;10.20;66.00;;;9.15;60.43;96265.22;6084010;23;20333;-87
2023/10/18 14:57:02;;;;;;;;;;;10.20;66.00;;;9.13;60.47;96262.75;6060212;23;19943;-88
2023/10/18 14:59:32;;;;;;;;;;;10.20;66.20;;;9.14;60.40;96252.66;6059754;23;19921;-88
2023/10/18 15:02:03;;;;;;;;;;;10.20;66.10;;;9.15;60.68;96259.78;6060372;23;19943;-88
2023/10/18 15:04:33;;;;;;;;;;;10.20;66.20;;;9.11;60.62;96248.53;6084151;23;19921;-88
2023/10/18 15:07:05;;;;;;;;;;;10.20;66.20;;;9.10;60.42;96246.88;6082829;23;19928;-88
2023/10/18 15:09:42;;;;;;;;;;;10.20;66.20;;;9.09;60.26;96245.25;6084170;23;19940;-88
2023/10/18 15:12:10;;;;;;;;;;;10.10;66.00;;;9.11;60.17;96250.44;6060518;23;19944;-88
2023/10/18 15:14:43;;;;;;;;;;;10.10;65.80;;;9.10;60.16;96251.53;6083251;23;20276;-88
2023/10/18 15:17:13;;;;;;;;;;;10.10;65.80;;;9.10;59.71;96252.34;6060267;23;19944;-88
2023/10/18 15:19:50;;;;;;;;;;;10.10;65.60;;;9.10;59.12;96256.97;6037920;23;19928;-88
2023/10/18 15:22:24;;;;;;;;;;;10.10;64.80;;;9.10;58.67;96256.97;6060335;23;20257;-88
2023/10/18 15:24:59;;;;;;;;;;;10.10;65.00;;;9.10;58.89;96265.19;6084185;23;19921;-88
2023/10/18 15:27:35;;;;;;;;;;;10.10;64.50;;;9.07;59.46;96263.81;6083782;23;19925;-88
2023/10/18 15:30:07;;;;;;;;;;;10.10;64.90;;;9.06;59.47;96256.69;6059835;23;20288;-88
2023/10/18 15:32:45;;;;;;;;;;;10.00;65.00;;;9.02;59.89;96261.84;6060424;23;19921;-88
2023/10/18 15:35:21;;;;;;;;;;;10.00;65.50;;;9.00;59.95;96255.81;6038819;23;20308;-88
2023/10/18 15:38:03;;;;;;;;;;;;;;;;;;;;;
2023/10/18 15:40:45;;;;;;;;;;;10.00;66.00;;;8.93;60.10;96254.38;6084205;23;19924;-88
2023/10/18 15:43:17;;;;;;;;;;;9.90;66.00;;;8.90;60.63;96259.28;6083915;23;19928;-88
2023/10/18 15:45:50;;;;;;;;;;;9.90;66.70;;;8.88;60.88;96266.88;6084068;23;19921;-88
2023/10/18 15:48:19;;;;;;;;;;;9.90;66.90;;;8.87;60.94;96261.69;6059337;23;19921;-88
2023/10/18 15:50:51;;;;;;;;;;;9.90;67.10;;;8.87;61.43;96258.97;6059891;23;20297;-88
2023/10/18 15:53:41;;;;;;;;;;;9.90;67.40;;;8.88;61.30;96274.28;6059245;23;19932;-88
2023/10/18 15:56:18;;;;;;;;;;;9.90;67.60;;;8.85;61.54;96272.84;6084354;23;19921;-88
2023/10/18 15:58:46;;;;;;;;;;;9.90;67.50;;;8.87;61.70;96283.53;6083798;23;19925;-88
2023/10/18 16:01:17;;;;;;;;;;;9.90;67.70;;;8.86;61.81;96274.50;6084144;23;19921;-88
2023/10/18 16:04:01;;;;;;;;;;;9.90;67.80;;;8.84;61.73;96276.66;6060404;23;20387;-88
2023/10/18 16:06:39;;;;;;;;;;;9.90;67.80;;;8.84;62.06;96276.66;6059726;23;19925;-88
2023/10/18 16:09:17;;;;;;;;;;;9.90;68.00;;;8.85;61.66;96281.03;6059406;23;19921;-88
2023/10/18 16:11:51;;;;;;;;;;;9.90;67.90;;;8.85;61.68;96283.78;6109449;23;19944;-88
2023/10/18 16:14:24;;;;;;;;;;;9.90;67.90;;;8.86;61.84;96282.69;6084013;23;19921;-88
2023/10/18 16:17:21;;;;;;;;;;;9.90;67.70;;;8.81;61.64;96282.66;6063129;23;19921;-88
2023/10/18 16:19:58;;;;;;;;;;;9.80;67.60;;;8.79;61.45;96284.81;6083819;23;19921;-87
2023/10/18 16:23:09;;;;;;;;;;;9.80;67.50;;;8.82;61.63;96288.94;6083933;23;19928;-87
2023/10/18 16:25:50;;;;;;;;;;;9.80;67.60;;;8.82;61.77;96294.41;6059861;23;20344;-87
2023/10/18 16:28:50;;;;;;;;;;;9.80;67.80;;;8.79;61.67;96290.28;6108017;23;20325;-87
2023/10/18 16:31:34;;;;;;;;;;;9.80;67.80;;;8.79;62.08;96290.28;6061552;23;19921;-87
2023/10/18 16:34:40;;;;;;;;;;;;;;;;;;;;;
2023/10/18 16:37:17;;;;;;;;;;;9.80;67.90;;;8.79;61.72;96298.47;6083460;23;19921;-88
2023/10/18 16:39:59;;;;;;;;;;;9.80;67.60;;;8.76;61.69;96290.78;6059713;23;19928;-88
2023/10/18 16:42:38;;;;;;;;;;;9.80;68.20;;;8.74;61.93;96282.03;6108460;23;19928;-88
2023/10/18 16:45:26;;;;;;;;;;;9.80;67.70;;;8.75;62.36;96287.25;6086948;23;20248;-88
2023/10/18 16:48:04;;;;;;;;;;;9.80;68.40;;;8.75;62.76;96294.59;6082923;23;19921;-88
2023/10/18 16:51:11;;;;;;;;;;;9.80;68.60;;;8.75;62.31;96287.25;6061208;23;19920;-88
2023/10/18 16:53:49;;;;;;;;;;;9.80;68.40;;;8.73;62.77;96277.66;6058226;23;19921;-88
2023/10/18 16:56:47;;;;;;;;;;;9.80;68.70;;;8.77;63.06;96286.16;6059741;23;19921;-88
2023/10/18 16:59:56;;;;;;;;;;;9.80;69.00;;;8.73;62.83;96283.94;6083551;23;19932;-88
2023/10/18 17:02:31;;;;;;;;;;;9.80;69.10;;;8.75;62.87;96287.25;6060523;23;19927;-88
2023/10/18 17:05:00;;;;;;;;;;;9.80;68.80;;;8.73;62.56;96283.09;6082849;23;20341;-88
2023/10/18 17:08:05;;;;;;;;;;;9.80;68.60;;;8.72;62.38;96278.72;6084483;23;20234;-87
2023/10/18 17:11:07;;;;;;;;;;;9.80;68.40;;;8.71;62.85;96272.47;6059611;23;19921;-88
2023/10/18 17:14:00;;;;;;;;;;;9.80;69.00;;;8.72;62.12;96278.72;6108112;23;20234;-88
2023/10/18 17:16:45;;;;;;;;;;;9.80;68.20;;;8.71;62.09;96277.09;6060475;23;19947;-88
2023/10/18 17:22:50;;;;;;;;;;;9.80;68.70;;;8.69;62.12;96276.53;6083648;23;19929;-88
2023/10/18 17:28:49;;;;;;;;;;;9.70;69.00;;;8.67;62.37;96282.22;6085998;23;19921;-88
2023/10/18 17:31:37;;;;;;;;;;;9.70;68.60;;;8.63;61.83;96280.28;6060730;23;19927;-88
2023/10/18 17:34:23;;;;;;;;;;;9.70;67.90;;;8.62;62.57;96284.06;6084441;23;19921;-88
2023/10/18 17:37:26;;;;;;;;;;;9.70;68.60;;;8.60;63.44;96282.44;6065368;23;19925;-87
2023/10/18 17:40:26;;;;;;;;;;;9.70;69.70;;;8.60;63.49;96276.97;6081252;23;19921;-88
2023/10/18 17:43:21;;;;;;;;;;;9.70;69.60;;;8.57;62.82;96282.97;6060713;23;19928;-88
2023/10/18 17:46:01;;;;;;;;;;;9.60;68.90;;;8.58;62.84;96273.66;6083163;23;19921;-88
2023/10/18 17:48:43;;;;;;;;;;;9.60;69.00;;;8.61;63.01;96283.28;6059650;23;20325;-88
2023/10/18 17:51:50;;;;;;;;;;;9.60;69.10;;;8.60;63.55;96279.69;6059721;23;20356;-88
2023/10/18 17:55:10;;;;;;;;;;;;;;;;;;;;;
2023/10/18 17:58:17;;;;;;;;;;;9.60;69.90;;;8.58;63.81;96278.31;6097339;23;19921;-88
2023/10/18 18:04:23;;;;;;;;;;;9.60;69.30;;;8.59;63.23;96286.22;6083399;23;19921;-88
2023/10/18 18:07:15;;;;;;;;;;;9.60;69.00;;;8.57;62.94;96280.22;6103996;23;20345;-88
2023/10/18 18:10:13;;;;;;;;;;;9.60;68.70;;;8.56;63.18;96285.94;6039844;23;19928;-88
2023/10/18 18:13:05;;;;;;;;;;;9.60;69.10;;;8.57;63.61;96282.97;6061335;23;19936;-88
2023/10/18 18:16:02;;;;;;;;;;;9.60;69.60;;;8.54;63.76;96286.19;6059799;23;19928;-87
2023/10/18 18:19:29;;;;;;;;;;;9.60;70.10;;;8.56;64.10;96285.94;6056452;23;19921;-87
2023/10/18 18:22:49;;;;;;;;;;;;;;;;;;;;;
2023/10/18 18:26:13;;;;;;;;;;;9.60;70.40;;;8.53;64.32;96281.81;6083110;23;19928;-88
2023/10/18 18:29:49;;;;;;;;;;;9.60;70.20;;;8.53;63.87;96279.09;6082474;23;19924;-88
2023/10/18 18:39:53;;;;;;;;;;;9.50;69.80;;;8.51;63.79;96283.16;6037780;23;19921;-88
2023/10/18 18:43:58;;;;;;;;;;;;;;;;;;;;;
2023/10/18 18:47:33;;;;;;;;;;;9.50;69.70;;;8.44;64.10;96281.41;6059688;23;19925;-88
